sensor_id;sensor_type;location;lat;lon;timestamp;pressure;altitude;pressure_sealevel;temperature;humidity
65276;BME280;51875;49.994;14.052;2023-08-12T00:01:09;98824.94;;;15.62;100.00
65276;BME280;51875;49.994;14.052;2023-08-12T00:02:25;98824.88;;;15.63;100.00
65276;BME280;51875;49.994;14.052;2023-08-12T00:03:41;98824.53;;;15.71;100.00
65276;BME280;51875;49.994;14.052;2023-08-12T00:04:57;98821.84;;;15.73;100.00
65276;BME280;51875;49.994;14.052;2023-08-12T00:06:12;98820.19;;;15.70;100.00
65276;BME280;51875;49.994;14.052;2023-08-12T00:07:29;98821.38;;;15.84;100.00
65276;BME280;51875;49.994;14.052;2023-08-12T00:08:46;98824.22;;;15.79;100.00
65276;BME280;51875;49.994;14.052;2023-08-12T00:10:02;98821.44;;;15.61;100.00
65276;BME280;51875;49.994;14.052;2023-08-12T00:11:19;98826.06;;;15.56;100.00
65276;BME280;51875;49.994;14.052;2023-08-12T00:12:35;98818.34;;;15.51;100.00
65276;BME280;51875;49.994;14.052;2023-08-12T00:13:51;98819.88;;;15.57;100.00
65276;BME280;51875;49.994;14.052;2023-08-12T00:15:07;98821.94;;;15.49;100.00
65276;BME280;51875;49.994;14.052;2023-08-12T00:16:23;98825.53;;;15.48;100.00
65276;BME280;51875;49.994;14.052;2023-08-12T00:17:39;98830.69;;;15.51;100.00
65276;BME280;51875;49.994;14.052;2023-08-12T00:18:56;98825.66;;;15.45;100.00
65276;BME280;51875;49.994;14.052;2023-08-12T00:20:12;98828.16;;;15.48;100.00
65276;BME280;51875;49.994;14.052;2023-08-12T00:21:27;98823.84;;;15.67;100.00
65276;BME280;51875;49.994;14.052;2023-08-12T00:22:43;98827.25;;;15.70;100.00
65276;BME280;51875;49.994;14.052;2023-08-12T00:23:59;98832.47;;;15.71;100.00
65276;BME280;51875;49.994;14.052;2023-08-12T00:25:15;98834.38;;;15.67;100.00
65276;BME280;51875;49.994;14.052;2023-08-12T00:26:30;98824.69;;;15.68;100.00
65276;BME280;51875;49.994;14.052;2023-08-12T00:27:46;98831.00;;;15.64;100.00
65276;BME280;51875;49.994;14.052;2023-08-12T00:29:01;98822.38;;;15.60;100.00
65276;BME280;51875;49.994;14.052;2023-08-12T00:30:18;98827.78;;;15.57;100.00
65276;BME280;51875;49.994;14.052;2023-08-12T00:31:33;98824.72;;;15.46;100.00
65276;BME280;51875;49.994;14.052;2023-08-12T00:32:49;98828.06;;;15.51;100.00
65276;BME280;51875;49.994;14.052;2023-08-12T00:34:05;98828.09;;;15.49;100.00
65276;BME280;51875;49.994;14.052;2023-08-12T00:35:20;98823.94;;;15.44;100.00
65276;BME280;51875;49.994;14.052;2023-08-12T00:36:35;98831.28;;;15.58;100.00
65276;BME280;51875;49.994;14.052;2023-08-12T00:37:52;98827.41;;;15.66;100.00
65276;BME280;51875;49.994;14.052;2023-08-12T00:39:08;98828.06;;;15.72;100.00
65276;BME280;51875;49.994;14.052;2023-08-12T00:40:23;98817.53;;;15.70;100.00
65276;BME280;51875;49.994;14.052;2023-08-12T00:41:39;98814.41;;;15.62;100.00
65276;BME280;51875;49.994;14.052;2023-08-12T00:42:55;98808.19;;;15.63;100.00
65276;BME280;51875;49.994;14.052;2023-08-12T00:44:10;98810.28;;;15.54;100.00
65276;BME280;51875;49.994;14.052;2023-08-12T00:45:26;98810.19;;;15.35;100.00
65276;BME280;51875;49.994;14.052;2023-08-12T00:46:42;98810.34;;;15.32;100.00
65276;BME280;51875;49.994;14.052;2023-08-12T00:47:58;98806.84;;;15.32;100.00
65276;BME280;51875;49.994;14.052;2023-08-12T00:49:13;98813.28;;;15.24;100.00
65276;BME280;51875;49.994;14.052;2023-08-12T00:50:30;98806.63;;;15.16;100.00
65276;BME280;51875;49.994;14.052;2023-08-12T00:51:49;98805.19;;;15.29;100.00
65276;BME280;51875;49.994;14.052;2023-08-12T00:53:04;98809.41;;;15.33;100.00
65276;BME280;51875;49.994;14.052;2023-08-12T00:54:21;98803.72;;;15.22;100.00
65276;BME280;51875;49.994;14.052;2023-08-12T00:55:37;98806.28;;;15.03;100.00
65276;BME280;51875;49.994;14.052;2023-08-12T00:56:53;98814.38;;;14.98;100.00
65276;BME280;51875;49.994;14.052;2023-08-12T00:58:09;98806.94;;;15.08;100.00
65276;BME280;51875;49.994;14.052;2023-08-12T00:59:25;98812.06;;;15.11;100.00
65276;BME280;51875;49.994;14.052;2023-08-12T01:00:42;98812.75;;;15.16;100.00
65276;BME280;51875;49.994;14.052;2023-08-12T01:01:58;98807.53;;;15.15;100.00
65276;BME280;51875;49.994;14.052;2023-08-12T01:03:13;98808.84;;;15.04;100.00
65276;BME280;51875;49.994;14.052;2023-08-12T01:04:29;98801.78;;;15.05;100.00
65276;BME280;51875;49.994;14.052;2023-08-12T01:05:46;98804.91;;;15.15;100.00
65276;BME280;51875;49.994;14.052;2023-08-12T01:07:02;98798.88;;;15.11;100.00
65276;BME280;51875;49.994;14.052;2023-08-12T01:08:18;98810.53;;;15.05;100.00
65276;BME280;51875;49.994;14.052;2023-08-12T01:09:34;98805.97;;;15.10;100.00
65276;BME280;51875;49.994;14.052;2023-08-12T01:10:52;98804.03;;;15.14;100.00
65276;BME280;51875;49.994;14.052;2023-08-12T01:12:32;98808.53;;;14.90;100.00
65276;BME280;51875;49.994;14.052;2023-08-12T01:14:28;98800.78;;;15.07;100.00
65276;BME280;51875;49.994;14.052;2023-08-12T01:15:49;98811.28;;;15.09;100.00
65276;BME280;51875;49.994;14.052;2023-08-12T01:17:09;98800.56;;;15.14;100.00
65276;BME280;51875;49.994;14.052;2023-08-12T01:18:27;98814.91;;;15.06;100.00
65276;BME280;51875;49.994;14.052;2023-08-12T01:19:43;98811.28;;;14.87;100.00
65276;BME280;51875;49.994;14.052;2023-08-12T01:21:01;98814.41;;;14.96;100.00
65276;BME280;51875;49.994;14.052;2023-08-12T01:22:20;98816.63;;;14.85;100.00
65276;BME280;51875;49.994;14.052;2023-08-12T01:23:36;98813.72;;;14.69;100.00
65276;BME280;51875;49.994;14.052;2023-08-12T01:24:52;98807.69;;;14.18;100.00
65276;BME280;51875;49.994;14.052;2023-08-12T01:26:07;98811.22;;;14.42;100.00
65276;BME280;51875;49.994;14.052;2023-08-12T01:27:23;98809.22;;;14.49;100.00
65276;BME280;51875;49.994;14.052;2023-08-12T01:28:39;98808.16;;;14.53;100.00
65276;BME280;51875;49.994;14.052;2023-08-12T01:29:55;98804.25;;;14.63;100.00
65276;BME280;51875;49.994;14.052;2023-08-12T01:31:28;98807.81;;;14.62;100.00
65276;BME280;51875;49.994;14.052;2023-08-12T01:32:56;98805.66;;;14.50;100.00
65276;BME280;51875;49.994;14.052;2023-08-12T01:35:42;98804.38;;;14.60;100.00
65276;BME280;51875;49.994;14.052;2023-08-12T01:36:59;98807.81;;;14.62;100.00
65276;BME280;51875;49.994;14.052;2023-08-12T01:38:17;98807.38;;;14.75;100.00
65276;BME280;51875;49.994;14.052;2023-08-12T01:39:35;98808.53;;;14.66;100.00
65276;BME280;51875;49.994;14.052;2023-08-12T01:40:52;98804.09;;;14.68;100.00
65276;BME280;51875;49.994;14.052;2023-08-12T01:42:08;98797.53;;;14.78;100.00
65276;BME280;51875;49.994;14.052;2023-08-12T01:43:24;98799.16;;;14.82;100.00
65276;BME280;51875;49.994;14.052;2023-08-12T01:44:40;98796.94;;;14.72;100.00
65276;BME280;51875;49.994;14.052;2023-08-12T01:45:55;98795.34;;;14.66;100.00
65276;BME280;51875;49.994;14.052;2023-08-12T01:47:11;98801.06;;;14.55;100.00
65276;BME280;51875;49.994;14.052;2023-08-12T01:48:27;98793.47;;;14.69;100.00
65276;BME280;51875;49.994;14.052;2023-08-12T01:49:42;98795.25;;;14.69;100.00
65276;BME280;51875;49.994;14.052;2023-08-12T01:50:58;98794.94;;;14.54;100.00
65276;BME280;51875;49.994;14.052;2023-08-12T01:52:14;98793.84;;;14.60;100.00
65276;BME280;51875;49.994;14.052;2023-08-12T01:53:29;98799.31;;;14.32;100.00
65276;BME280;51875;49.994;14.052;2023-08-12T01:54:45;98787.22;;;14.50;100.00
65276;BME280;51875;49.994;14.052;2023-08-12T01:56:00;98789.72;;;14.53;100.00
65276;BME280;51875;49.994;14.052;2023-08-12T01:57:16;98791.09;;;14.39;100.00
65276;BME280;51875;49.994;14.052;2023-08-12T01:58:32;98794.03;;;14.32;100.00
65276;BME280;51875;49.994;14.052;2023-08-12T01:59:47;98787.16;;;14.27;100.00
65276;BME280;51875;49.994;14.052;2023-08-12T02:01:03;98789.38;;;14.38;100.00
65276;BME280;51875;49.994;14.052;2023-08-12T02:02:19;98781.59;;;14.11;100.00
65276;BME280;51875;49.994;14.052;2023-08-12T02:03:34;98781.50;;;13.91;100.00
65276;BME280;51875;49.994;14.052;2023-08-12T02:04:50;98781.53;;;13.89;100.00
65276;BME280;51875;49.994;14.052;2023-08-12T02:06:06;98781.44;;;14.16;100.00
65276;BME280;51875;49.994;14.052;2023-08-12T02:07:21;98781.16;;;14.24;100.00
65276;BME280;51875;49.994;14.052;2023-08-12T02:08:37;98779.03;;;14.34;100.00
65276;BME280;51875;49.994;14.052;2023-08-12T02:09:52;98776.53;;;14.53;100.00
65276;BME280;51875;49.994;14.052;2023-08-12T02:11:08;98781.81;;;14.53;100.00
65276;BME280;51875;49.994;14.052;2023-08-12T02:12:23;98778.25;;;14.54;100.00
65276;BME280;51875;49.994;14.052;2023-08-12T02:13:39;98767.84;;;14.51;100.00
65276;BME280;51875;49.994;14.052;2023-08-12T02:14:54;98771.38;;;14.27;100.00
65276;BME280;51875;49.994;14.052;2023-08-12T02:16:10;98776.06;;;14.43;100.00
65276;BME280;51875;49.994;14.052;2023-08-12T02:17:26;98774.47;;;14.39;100.00
65276;BME280;51875;49.994;14.052;2023-08-12T02:18:41;98775.47;;;14.35;100.00
65276;BME280;51875;49.994;14.052;2023-08-12T02:19:57;98784.38;;;14.32;100.00
65276;BME280;51875;49.994;14.052;2023-08-12T02:21:12;98771.00;;;14.37;100.00
65276;BME280;51875;49.994;14.052;2023-08-12T02:22:28;98778.72;;;14.41;100.00
65276;BME280;51875;49.994;14.052;2023-08-12T02:23:44;98777.50;;;14.50;100.00
65276;BME280;51875;49.994;14.052;2023-08-12T02:25:00;98775.31;;;14.39;100.00
65276;BME280;51875;49.994;14.052;2023-08-12T02:26:15;98776.19;;;14.40;100.00
65276;BME280;51875;49.994;14.052;2023-08-12T02:27:31;98773.97;;;14.51;100.00
65276;BME280;51875;49.994;14.052;2023-08-12T02:28:47;98780.28;;;14.47;100.00
65276;BME280;51875;49.994;14.052;2023-08-12T02:30:03;98779.47;;;14.45;100.00
65276;BME280;51875;49.994;14.052;2023-08-12T02:31:19;98783.81;;;14.46;100.00
65276;BME280;51875;49.994;14.052;2023-08-12T02:32:34;98783.81;;;14.46;100.00
65276;BME280;51875;49.994;14.052;2023-08-12T02:33:50;98774.56;;;14.36;100.00
65276;BME280;51875;49.994;14.052;2023-08-12T02:35:06;98773.25;;;14.24;100.00
65276;BME280;51875;49.994;14.052;2023-08-12T02:36:21;98766.19;;;14.24;100.00
65276;BME280;51875;49.994;14.052;2023-08-12T02:37:37;98771.38;;;14.27;100.00
65276;BME280;51875;49.994;14.052;2023-08-12T02:38:53;98768.66;;;14.29;100.00
65276;BME280;51875;49.994;14.052;2023-08-12T02:40:09;98771.25;;;14.31;100.00
65276;BME280;51875;49.994;14.052;2023-08-12T02:41:26;98775.72;;;14.29;100.00
65276;BME280;51875;49.994;14.052;2023-08-12T02:42:41;98770.94;;;14.15;100.00
65276;BME280;51875;49.994;14.052;2023-08-12T02:43:57;98768.78;;;14.02;100.00
65276;BME280;51875;49.994;14.052;2023-08-12T02:45:12;98778.59;;;13.98;100.00
65276;BME280;51875;49.994;14.052;2023-08-12T02:46:28;98772.91;;;14.09;100.00
65276;BME280;51875;49.994;14.052;2023-08-12T02:47:46;98776.19;;;14.16;100.00
65276;BME280;51875;49.994;14.052;2023-08-12T02:49:02;98779.72;;;14.15;100.00
65276;BME280;51875;49.994;14.052;2023-08-12T02:50:17;98777.03;;;14.17;100.00
65276;BME280;51875;49.994;14.052;2023-08-12T02:51:33;98776.88;;;13.97;100.00
65276;BME280;51875;49.994;14.052;2023-08-12T02:52:48;98773.41;;;13.72;100.00
65276;BME280;51875;49.994;14.052;2023-08-12T02:54:04;98776.50;;;13.83;100.00
65276;BME280;51875;49.994;14.052;2023-08-12T02:55:20;98773.81;;;13.84;100.00
65276;BME280;51875;49.994;14.052;2023-08-12T02:56:36;98779.19;;;13.81;100.00
65276;BME280;51875;49.994;14.052;2023-08-12T02:57:51;98773.72;;;13.62;100.00
65276;BME280;51875;49.994;14.052;2023-08-12T02:59:07;98781.22;;;13.48;100.00
65276;BME280;51875;49.994;14.052;2023-08-12T03:00:23;98775.97;;;13.48;100.00
65276;BME280;51875;49.994;14.052;2023-08-12T03:01:41;98778.38;;;13.54;100.00
65276;BME280;51875;49.994;14.052;2023-08-12T03:02:57;98776.88;;;13.47;100.00
65276;BME280;51875;49.994;14.052;2023-08-12T03:04:12;98768.84;;;13.51;100.00
65276;BME280;51875;49.994;14.052;2023-08-12T03:05:28;98766.88;;;13.56;100.00
65276;BME280;51875;49.994;14.052;2023-08-12T03:06:43;98765.34;;;13.76;100.00
65276;BME280;51875;49.994;14.052;2023-08-12T03:07:59;98760.72;;;13.83;100.00
65276;BME280;51875;49.994;14.052;2023-08-12T03:09:16;98766.88;;;13.82;100.00
65276;BME280;51875;49.994;14.052;2023-08-12T03:10:34;98765.22;;;13.54;100.00
65276;BME280;51875;49.994;14.052;2023-08-12T03:11:49;98764.59;;;13.73;100.00
65276;BME280;51875;49.994;14.052;2023-08-12T03:13:05;98761.59;;;13.82;100.00
65276;BME280;51875;49.994;14.052;2023-08-12T03:14:20;98760.16;;;13.98;100.00
65276;BME280;51875;49.994;14.052;2023-08-12T03:15:39;98763.41;;;13.81;100.00
65276;BME280;51875;49.994;14.052;2023-08-12T03:16:58;98765.50;;;13.72;100.00
65276;BME280;51875;49.994;14.052;2023-08-12T03:18:13;98764.94;;;13.62;100.00
65276;BME280;51875;49.994;14.052;2023-08-12T03:19:29;98766.47;;;13.44;100.00
65276;BME280;51875;49.994;14.052;2023-08-12T03:20:44;98762.09;;;13.42;100.00
65276;BME280;51875;49.994;14.052;2023-08-12T03:22:00;98762.84;;;13.46;100.00
65276;BME280;51875;49.994;14.052;2023-08-12T03:23:15;98762.78;;;13.49;100.00
65276;BME280;51875;49.994;14.052;2023-08-12T03:24:31;98767.16;;;13.49;100.00
65276;BME280;51875;49.994;14.052;2023-08-12T03:25:47;98758.25;;;13.53;100.00
65276;BME280;51875;49.994;14.052;2023-08-12T03:27:03;98766.03;;;13.56;100.00
65276;BME280;51875;49.994;14.052;2023-08-12T03:28:19;98765.53;;;13.70;100.00
65276;BME280;51875;49.994;14.052;2023-08-12T03:29:34;98767.97;;;13.76;100.00
65276;BME280;51875;49.994;14.052;2023-08-12T03:30:51;98761.78;;;13.77;100.00
65276;BME280;51875;49.994;14.052;2023-08-12T03:32:07;98768.97;;;13.72;100.00
65276;BME280;51875;49.994;14.052;2023-08-12T03:33:22;98768.34;;;13.65;100.00
65276;BME280;51875;49.994;14.052;2023-08-12T03:34:38;98774.34;;;13.69;100.00
65276;BME280;51875;49.994;14.052;2023-08-12T03:35:54;98775.22;;;13.69;100.00
65276;BME280;51875;49.994;14.052;2023-08-12T03:37:09;98768.03;;;13.75;100.00
65276;BME280;51875;49.994;14.052;2023-08-12T03:38:25;98769.56;;;13.80;100.00
65276;BME280;51875;49.994;14.052;2023-08-12T03:39:40;98767.78;;;13.81;100.00
65276;BME280;51875;49.994;14.052;2023-08-12T03:40:56;98772.38;;;13.76;100.00
65276;BME280;51875;49.994;14.052;2023-08-12T03:42:11;98774.13;;;13.75;100.00
65276;BME280;51875;49.994;14.052;2023-08-12T03:43:27;98766.06;;;13.80;100.00
65276;BME280;51875;49.994;14.052;2023-08-12T03:44:43;98768.78;;;13.78;100.00
65276;BME280;51875;49.994;14.052;2023-08-12T03:45:59;98773.97;;;13.80;100.00
65276;BME280;51875;49.994;14.052;2023-08-12T03:47:14;98774.19;;;13.74;100.00
65276;BME280;51875;49.994;14.052;2023-08-12T03:48:30;98774.34;;;13.69;100.00
65276;BME280;51875;49.994;14.052;2023-08-12T03:49:46;98777.75;;;13.73;100.00
65276;BME280;51875;49.994;14.052;2023-08-12T03:51:01;98774.19;;;13.74;100.00
65276;BME280;51875;49.994;14.052;2023-08-12T03:52:16;98779.47;;;13.74;100.00
65276;BME280;51875;49.994;14.052;2023-08-12T03:53:32;98767.38;;;13.68;100.00
65276;BME280;51875;49.994;14.052;2023-08-12T03:54:48;98768.69;;;13.56;100.00
65276;BME280;51875;49.994;14.052;2023-08-12T03:56:03;98767.50;;;13.65;100.00
65276;BME280;51875;49.994;14.052;2023-08-12T03:57:19;98774.03;;;13.53;100.00
65276;BME280;51875;49.994;14.052;2023-08-12T03:58:35;98769.59;;;13.55;100.00
65276;BME280;51875;49.994;14.052;2023-08-12T03:59:51;98774.41;;;13.67;100.00
65276;BME280;51875;49.994;14.052;2023-08-12T04:01:06;98769.13;;;13.67;100.00
65276;BME280;51875;49.994;14.052;2023-08-12T04:02:22;98771.31;;;13.56;100.00
65276;BME280;51875;49.994;14.052;2023-08-12T04:03:37;98776.06;;;13.45;100.00
65276;BME280;51875;49.994;14.052;2023-08-12T04:04:53;98774.41;;;13.40;100.00
65276;BME280;51875;49.994;14.052;2023-08-12T04:06:09;98773.22;;;13.51;100.00
65276;BME280;51875;49.994;14.052;2023-08-12T04:07:24;98762.78;;;13.49;100.00
65276;BME280;51875;49.994;14.052;2023-08-12T04:08:40;98767.97;;;13.51;100.00
65276;BME280;51875;49.994;14.052;2023-08-12T04:09:55;98759.06;;;13.28;100.00
65276;BME280;51875;49.994;14.052;2023-08-12T04:11:11;98758.50;;;13.18;100.00
65276;BME280;51875;49.994;14.052;2023-08-12T04:12:26;98762.00;;;13.19;100.00
65276;BME280;51875;49.994;14.052;2023-08-12T04:13:42;98756.91;;;13.39;100.00
65276;BME280;51875;49.994;14.052;2023-08-12T04:14:58;98759.44;;;13.44;100.00
65276;BME280;51875;49.994;14.052;2023-08-12T04:16:13;98767.13;;;13.50;100.00
65276;BME280;51875;49.994;14.052;2023-08-12T04:17:29;98762.16;;;13.39;100.00
65276;BME280;51875;49.994;14.052;2023-08-12T04:18:44;98761.25;;;13.40;100.00
65276;BME280;51875;49.994;14.052;2023-08-12T04:20:00;98762.00;;;13.46;100.00
65276;BME280;51875;49.994;14.052;2023-08-12T04:21:15;98764.16;;;13.60;100.00
65276;BME280;51875;49.994;14.052;2023-08-12T04:22:31;98760.66;;;13.59;100.00
65276;BME280;51875;49.994;14.052;2023-08-12T04:23:46;98759.59;;;13.65;100.00
65276;BME280;51875;49.994;14.052;2023-08-12T04:25:02;98762.97;;;13.68;100.00
65276;BME280;51875;49.994;14.052;2023-08-12T04:26:18;98762.13;;;13.68;100.00
65276;BME280;51875;49.994;14.052;2023-08-12T04:27:34;98756.72;;;13.71;100.00
65276;BME280;51875;49.994;14.052;2023-08-12T04:28:49;98757.69;;;13.68;100.00
65276;BME280;51875;49.994;14.052;2023-08-12T04:30:05;98754.25;;;13.66;100.00
65276;BME280;51875;49.994;14.052;2023-08-12T04:31:21;98756.59;;;13.50;100.00
65276;BME280;51875;49.994;14.052;2023-08-12T04:32:37;98751.38;;;13.49;100.00
65276;BME280;51875;49.994;14.052;2023-08-12T04:33:52;98752.84;;;13.31;100.00
65276;BME280;51875;49.994;14.052;2023-08-12T04:35:08;98748.22;;;13.37;100.00
65276;BME280;51875;49.994;14.052;2023-08-12T04:36:24;98748.72;;;13.50;100.00
65276;BME280;51875;49.994;14.052;2023-08-12T04:37:39;98757.06;;;13.62;100.00
65276;BME280;51875;49.994;14.052;2023-08-12T04:38:55;98751.53;;;13.69;100.00
65276;BME280;51875;49.994;14.052;2023-08-12T04:40:10;98756.53;;;13.77;100.00
65276;BME280;51875;49.994;14.052;2023-08-12T04:41:26;98752.00;;;13.81;100.00
65276;BME280;51875;49.994;14.052;2023-08-12T04:42:42;98762.34;;;13.86;100.00
65276;BME280;51875;49.994;14.052;2023-08-12T04:43:57;98757.69;;;13.94;100.00
65276;BME280;51875;49.994;14.052;2023-08-12T04:45:13;98766.88;;;13.56;100.00
65276;BME280;51875;49.994;14.052;2023-08-12T04:46:29;98759.88;;;13.57;100.00
65276;BME280;51875;49.994;14.052;2023-08-12T04:47:45;98762.38;;;13.60;100.00
65276;BME280;51875;49.994;14.052;2023-08-12T04:49:01;98761.34;;;13.64;100.00
65276;BME280;51875;49.994;14.052;2023-08-12T04:50:16;98758.56;;;13.69;100.00
65276;BME280;51875;49.994;14.052;2023-08-12T04:51:33;98755.81;;;13.72;100.00
65276;BME280;51875;49.994;14.052;2023-08-12T04:52:49;98745.72;;;13.85;100.00
65276;BME280;51875;49.994;14.052;2023-08-12T04:54:04;98756.69;;;13.96;100.00
65276;BME280;51875;49.994;14.052;2023-08-12T04:55:20;98751.25;;;14.01;100.00
65276;BME280;51875;49.994;14.052;2023-08-12T04:56:36;98758.72;;;14.13;100.00
65276;BME280;51875;49.994;14.052;2023-08-12T04:57:51;98754.06;;;14.20;100.00
65276;BME280;51875;49.994;14.052;2023-08-12T04:59:07;98752.22;;;14.22;100.00
65276;BME280;51875;49.994;14.052;2023-08-12T05:00:23;98752.22;;;14.22;100.00
65276;BME280;51875;49.994;14.052;2023-08-12T05:01:39;98753.91;;;14.25;100.00
65276;BME280;51875;49.994;14.052;2023-08-12T05:02:54;98754.88;;;14.22;100.00
65276;BME280;51875;49.994;14.052;2023-08-12T05:04:10;98752.94;;;14.27;100.00
65276;BME280;51875;49.994;14.052;2023-08-12T05:05:26;98758.03;;;14.32;100.00
65276;BME280;51875;49.994;14.052;2023-08-12T05:06:43;98748.28;;;14.34;100.00
65276;BME280;51875;49.994;14.052;2023-08-12T05:07:58;98753.72;;;14.30;100.00
65276;BME280;51875;49.994;14.052;2023-08-12T05:09:14;98754.56;;;14.30;100.00
65276;BME280;51875;49.994;14.052;2023-08-12T05:10:30;98759.00;;;14.30;100.00
65276;BME280;51875;49.994;14.052;2023-08-12T05:11:45;98752.63;;;14.35;100.00
65276;BME280;51875;49.994;14.052;2023-08-12T05:13:01;98758.44;;;14.44;100.00
65276;BME280;51875;49.994;14.052;2023-08-12T05:14:18;98759.31;;;14.44;100.00
65276;BME280;51875;49.994;14.052;2023-08-12T05:15:33;98747.50;;;14.54;100.00
65276;BME280;51875;49.994;14.052;2023-08-12T05:16:51;98755.81;;;14.66;100.00
65276;BME280;51875;49.994;14.052;2023-08-12T05:18:07;98747.38;;;14.58;100.00
65276;BME280;51875;49.994;14.052;2023-08-12T05:19:23;98746.34;;;14.62;100.00
65276;BME280;51875;49.994;14.052;2023-08-12T05:20:42;98748.06;;;14.63;100.00
65276;BME280;51875;49.994;14.052;2023-08-12T05:21:57;98743.19;;;14.76;100.00
65276;BME280;51875;49.994;14.052;2023-08-12T05:23:13;98755.75;;;14.91;100.00
65276;BME280;51875;49.994;14.052;2023-08-12T05:24:29;98745.03;;;14.96;100.00
65276;BME280;51875;49.994;14.052;2023-08-12T05:25:44;98754.25;;;15.06;100.00
65276;BME280;51875;49.994;14.052;2023-08-12T05:27:00;98752.66;;;15.02;100.00
65276;BME280;51875;49.994;14.052;2023-08-12T05:28:16;98751.22;;;14.95;100.00
65276;BME280;51875;49.994;14.052;2023-08-12T05:29:31;98751.44;;;14.89;100.00
65276;BME280;51875;49.994;14.052;2023-08-12T05:30:48;98745.13;;;14.93;100.00
65276;BME280;51875;49.994;14.052;2023-08-12T05:32:04;98754.56;;;14.99;100.00
65276;BME280;51875;49.994;14.052;2023-08-12T05:33:19;98749.47;;;15.16;100.00
65276;BME280;51875;49.994;14.052;2023-08-12T05:34:35;98751.50;;;15.09;100.00
65276;BME280;51875;49.994;14.052;2023-08-12T05:35:51;98753.59;;;15.22;100.00
65276;BME280;51875;49.994;14.052;2023-08-12T05:37:07;98746.44;;;15.25;100.00
65276;BME280;51875;49.994;14.052;2023-08-12T05:38:24;98753.88;;;15.36;100.00
65276;BME280;51875;49.994;14.052;2023-08-12T05:39:39;98753.16;;;15.33;100.00
65276;BME280;51875;49.994;14.052;2023-08-12T05:40:55;98749.53;;;15.35;100.00
65276;BME280;51875;49.994;14.052;2023-08-12T05:42:11;98751.91;;;15.42;100.00
65276;BME280;51875;49.994;14.052;2023-08-12T05:43:26;98752.56;;;15.47;100.00
65276;BME280;51875;49.994;14.052;2023-08-12T05:44:42;98755.66;;;15.57;100.00
65276;BME280;51875;49.994;14.052;2023-08-12T05:45:57;98754.94;;;15.74;100.00
65276;BME280;51875;49.994;14.052;2023-08-12T05:47:13;98757.72;;;15.71;100.00
65276;BME280;51875;49.994;14.052;2023-08-12T05:48:29;98754.47;;;15.64;100.00
65276;BME280;51875;49.994;14.052;2023-08-12T05:49:44;98755.25;;;15.87;100.00
65276;BME280;51875;49.994;14.052;2023-08-12T05:51:00;98755.72;;;15.97;100.00
65276;BME280;51875;49.994;14.052;2023-08-12T05:52:15;98757.03;;;15.86;100.00
65276;BME280;51875;49.994;14.052;2023-08-12T05:53:31;98748.63;;;15.97;100.00
65276;BME280;51875;49.994;14.052;2023-08-12T05:54:47;98753.66;;;16.03;100.00
65276;BME280;51875;49.994;14.052;2023-08-12T05:56:02;98739.69;;;16.20;100.00
65276;BME280;51875;49.994;14.052;2023-08-12T05:57:18;98744.31;;;16.15;100.00
65276;BME280;51875;49.994;14.052;2023-08-12T05:58:34;98738.03;;;16.18;100.00
65276;BME280;51875;49.994;14.052;2023-08-12T05:59:50;98744.72;;;16.25;100.00
65276;BME280;51875;49.994;14.052;2023-08-12T06:01:05;98739.00;;;16.54;100.00
65276;BME280;51875;49.994;14.052;2023-08-12T06:02:21;98739.22;;;16.49;100.00
65276;BME280;51875;49.994;14.052;2023-08-12T06:03:38;98733.31;;;16.44;100.00
65276;BME280;51875;49.994;14.052;2023-08-12T06:04:53;98738.28;;;16.50;100.00
65276;BME280;51875;49.994;14.052;2023-08-12T06:06:09;98736.06;;;16.60;100.00
65276;BME280;51875;49.994;14.052;2023-08-12T06:07:24;98728.56;;;16.70;100.00
65276;BME280;51875;49.994;14.052;2023-08-12T06:08:40;98732.66;;;16.58;100.00
65276;BME280;51875;49.994;14.052;2023-08-12T06:09:56;98727.53;;;16.72;100.00
65276;BME280;51875;49.994;14.052;2023-08-12T06:11:11;98731.78;;;16.76;100.00
65276;BME280;51875;49.994;14.052;2023-08-12T06:12:27;98734.53;;;16.73;100.00
65276;BME280;51875;49.994;14.052;2023-08-12T06:13:42;98731.63;;;16.79;100.00
65276;BME280;51875;49.994;14.052;2023-08-12T06:14:58;98732.94;;;16.88;100.00
65276;BME280;51875;49.994;14.052;2023-08-12T06:16:13;98737.72;;;16.99;100.00
65276;BME280;51875;49.994;14.052;2023-08-12T06:17:29;98729.00;;;16.97;100.00
65276;BME280;51875;49.994;14.052;2023-08-12T06:18:45;98734.31;;;17.15;100.00
65276;BME280;51875;49.994;14.052;2023-08-12T06:20:00;98734.09;;;17.19;100.00
65276;BME280;51875;49.994;14.052;2023-08-12T06:21:16;98740.31;;;17.18;100.00
65276;BME280;51875;49.994;14.052;2023-08-12T06:22:32;98727.94;;;17.36;100.00
65276;BME280;51875;49.994;14.052;2023-08-12T06:23:47;98731.97;;;17.44;100.00
65276;BME280;51875;49.994;14.052;2023-08-12T06:25:03;98736.41;;;17.43;100.00
65276;BME280;51875;49.994;14.052;2023-08-12T06:26:18;98730.25;;;17.60;100.00
65276;BME280;51875;49.994;14.052;2023-08-12T06:27:34;98727.34;;;17.65;100.00
65276;BME280;51875;49.994;14.052;2023-08-12T06:28:50;98729.34;;;17.77;100.00
65276;BME280;51875;49.994;14.052;2023-08-12T06:30:06;98723.56;;;17.87;100.00
65276;BME280;51875;49.994;14.052;2023-08-12T06:31:21;98728.38;;;17.96;100.00
65276;BME280;51875;49.994;14.052;2023-08-12T06:32:37;98729.16;;;17.98;100.00
65276;BME280;51875;49.994;14.052;2023-08-12T06:33:53;98724.53;;;18.02;100.00
65276;BME280;51875;49.994;14.052;2023-08-12T06:35:08;98723.28;;;18.09;100.00